sensor_id;sensor_type;location;lat;lon;timestamp;temperature;humidity
70321;DHT22;61127;55.826;37.046;2023-04-25T00:01:46;11.89;39.58
70321;DHT22;61127;55.826;37.046;2023-04-25T00:04:12;11.87;39.60
70321;DHT22;61127;55.826;37.046;2023-04-25T00:06:39;11.85;39.53
70321;DHT22;61127;55.826;37.046;2023-04-25T00:09:06;11.79;39.01
70321;DHT22;61127;55.826;37.046;2023-04-25T00:11:35;11.73;39.39
70321;DHT22;61127;55.826;37.046;2023-04-25T00:14:03;11.71;39.36
70321;DHT22;61127;55.826;37.046;2023-04-25T00:16:29;11.67;39.91
70321;DHT22;61127;55.826;37.046;2023-04-25T00:18:59;11.62;39.07
70321;DHT22;61127;55.826;37.046;2023-04-25T00:21:25;11.49;40.01
70321;DHT22;61127;55.826;37.046;2023-04-25T00:23:52;11.43;40.84
70321;DHT22;61127;55.826;37.046;2023-04-25T00:26:19;11.37;40.75
70321;DHT22;61127;55.826;37.046;2023-04-25T00:28:47;11.28;41.10
70321;DHT22;61127;55.826;37.046;2023-04-25T00:31:14;11.22;41.82
70321;DHT22;61127;55.826;37.046;2023-04-25T00:33:40;11.14;41.94
70321;DHT22;61127;55.826;37.046;2023-04-25T00:36:07;11.05;41.79
70321;DHT22;61127;55.826;37.046;2023-04-25T00:38:33;10.99;41.81
70321;DHT22;61127;55.826;37.046;2023-04-25T00:40:59;10.95;42.66
70321;DHT22;61127;55.826;37.046;2023-04-25T00:43:26;10.90;42.83
70321;DHT22;61127;55.826;37.046;2023-04-25T00:45:53;10.87;42.49
70321;DHT22;61127;55.826;37.046;2023-04-25T00:48:21;10.85;42.93
70321;DHT22;61127;55.826;37.046;2023-04-25T00:50:53;10.84;42.66
70321;DHT22;61127;55.826;37.046;2023-04-25T00:53:23;10.82;41.59
70321;DHT22;61127;55.826;37.046;2023-04-25T00:55:50;10.75;41.90
70321;DHT22;61127;55.826;37.046;2023-04-25T00:58:17;10.66;41.39
70321;DHT22;61127;55.826;37.046;2023-04-25T01:00:45;10.55;42.27
70321;DHT22;61127;55.826;37.046;2023-04-25T01:03:13;10.50;42.75
70321;DHT22;61127;55.826;37.046;2023-04-25T01:05:42;10.43;42.56
70321;DHT22;61127;55.826;37.046;2023-04-25T01:08:09;10.40;42.58
70321;DHT22;61127;55.826;37.046;2023-04-25T01:10:35;10.36;42.67
70321;DHT22;61127;55.826;37.046;2023-04-25T01:13:01;10.34;42.47
70321;DHT22;61127;55.826;37.046;2023-04-25T01:15:27;10.28;42.84
70321;DHT22;61127;55.826;37.046;2023-04-25T01:17:54;10.23;42.90
70321;DHT22;61127;55.826;37.046;2023-04-25T01:20:22;10.20;43.07
70321;DHT22;61127;55.826;37.046;2023-04-25T01:22:50;10.16;43.64
70321;DHT22;61127;55.826;37.046;2023-04-25T01:25:16;10.10;43.61
70321;DHT22;61127;55.826;37.046;2023-04-25T01:27:43;10.06;43.42
70321;DHT22;61127;55.826;37.046;2023-04-25T01:30:09;10.03;43.19
70321;DHT22;61127;55.826;37.046;2023-04-25T01:32:37;9.96;43.40
70321;DHT22;61127;55.826;37.046;2023-04-25T01:35:08;9.95;43.87
70321;DHT22;61127;55.826;37.046;2023-04-25T01:37:41;9.92;44.45
70321;DHT22;61127;55.826;37.046;2023-04-25T01:40:10;9.89;44.54
70321;DHT22;61127;55.826;37.046;2023-04-25T01:42:40;9.89;44.41
70321;DHT22;61127;55.826;37.046;2023-04-25T01:45:07;9.88;44.47
70321;DHT22;61127;55.826;37.046;2023-04-25T01:47:34;9.88;44.48
70321;DHT22;61127;55.826;37.046;2023-04-25T01:50:05;9.91;45.28
70321;DHT22;61127;55.826;37.046;2023-04-25T01:52:31;9.93;44.77
70321;DHT22;61127;55.826;37.046;2023-04-25T01:54:59;9.95;45.00
70321;DHT22;61127;55.826;37.046;2023-04-25T01:57:30;9.99;44.83
70321;DHT22;61127;55.826;37.046;2023-04-25T02:00:05;10.05;45.11
70321;DHT22;61127;55.826;37.046;2023-04-25T02:02:38;10.08;45.14
70321;DHT22;61127;55.826;37.046;2023-04-25T02:05:07;10.11;45.18
70321;DHT22;61127;55.826;37.046;2023-04-25T02:07:36;10.15;45.35
70321;DHT22;61127;55.826;37.046;2023-04-25T02:10:03;10.21;45.32
70321;DHT22;61127;55.826;37.046;2023-04-25T02:12:33;10.28;45.51
70321;DHT22;61127;55.826;37.046;2023-04-25T02:15:19;10.33;45.35
70321;DHT22;61127;55.826;37.046;2023-04-25T02:18:15;10.39;45.39
70321;DHT22;61127;55.826;37.046;2023-04-25T02:20:44;10.41;44.74
70321;DHT22;61127;55.826;37.046;2023-04-25T02:23:10;10.48;44.39
70321;DHT22;61127;55.826;37.046;2023-04-25T02:25:36;10.51;44.80
70321;DHT22;61127;55.826;37.046;2023-04-25T02:28:02;10.55;45.28
70321;DHT22;61127;55.826;37.046;2023-04-25T02:30:29;10.57;45.32
70321;DHT22;61127;55.826;37.046;2023-04-25T02:32:56;10.62;45.16
70321;DHT22;61127;55.826;37.046;2023-04-25T02:35:22;10.65;45.12
70321;DHT22;61127;55.826;37.046;2023-04-25T02:37:48;10.70;45.48
70321;DHT22;61127;55.826;37.046;2023-04-25T02:40:14;10.73;44.99
70321;DHT22;61127;55.826;37.046;2023-04-25T02:42:40;10.78;45.18
70321;DHT22;61127;55.826;37.046;2023-04-25T02:45:06;10.81;45.59
70321;DHT22;61127;55.826;37.046;2023-04-25T02:47:32;10.83;45.41
70321;DHT22;61127;55.826;37.046;2023-04-25T02:49:58;10.87;45.29
70321;DHT22;61127;55.826;37.046;2023-04-25T02:52:24;10.89;45.51
70321;DHT22;61127;55.826;37.046;2023-04-25T02:54:58;10.92;45.31
70321;DHT22;61127;55.826;37.046;2023-04-25T02:57:26;10.94;45.38
70321;DHT22;61127;55.826;37.046;2023-04-25T02:59:52;10.99;45.20
70321;DHT22;61127;55.826;37.046;2023-04-25T03:02:18;11.01;45.81
70321;DHT22;61127;55.826;37.046;2023-04-25T03:04:44;11.03;45.99
70321;DHT22;61127;55.826;37.046;2023-04-25T03:07:09;11.09;46.29
70321;DHT22;61127;55.826;37.046;2023-04-25T03:09:35;11.14;46.43
70321;DHT22;61127;55.826;37.046;2023-04-25T03:12:02;11.19;46.62
70321;DHT22;61127;55.826;37.046;2023-04-25T03:14:28;11.22;46.76
70321;DHT22;61127;55.826;37.046;2023-04-25T03:16:54;11.25;47.10
70321;DHT22;61127;55.826;37.046;2023-04-25T03:19:20;11.30;47.28
70321;DHT22;61127;55.826;37.046;2023-04-25T03:21:47;11.36;46.94
70321;DHT22;61127;55.826;37.046;2023-04-25T03:24:13;11.40;46.70
70321;DHT22;61127;55.826;37.046;2023-04-25T03:26:38;11.46;45.98
70321;DHT22;61127;55.826;37.046;2023-04-25T03:29:04;11.53;46.06
70321;DHT22;61127;55.826;37.046;2023-04-25T03:31:31;11.59;45.80
70321;DHT22;61127;55.826;37.046;2023-04-25T03:33:57;11.62;45.13
70321;DHT22;61127;55.826;37.046;2023-04-25T03:36:23;11.67;45.19
70321;DHT22;61127;55.826;37.046;2023-04-25T03:38:49;11.72;46.11
70321;DHT22;61127;55.826;37.046;2023-04-25T03:41:17;11.79;46.40
70321;DHT22;61127;55.826;37.046;2023-04-25T03:43:46;11.86;46.70
70321;DHT22;61127;55.826;37.046;2023-04-25T03:46:13;11.92;47.27
70321;DHT22;61127;55.826;37.046;2023-04-25T03:48:40;11.99;46.50
70321;DHT22;61127;55.826;37.046;2023-04-25T03:51:08;12.06;46.35
70321;DHT22;61127;55.826;37.046;2023-04-25T03:53:37;12.14;45.90
70321;DHT22;61127;55.826;37.046;2023-04-25T03:56:19;12.12;45.09
70321;DHT22;61127;55.826;37.046;2023-04-25T03:58:49;12.10;45.77
70321;DHT22;61127;55.826;37.046;2023-04-25T04:01:17;12.10;46.54
70321;DHT22;61127;55.826;37.046;2023-04-25T04:03:43;12.06;47.31
70321;DHT22;61127;55.826;37.046;2023-04-25T04:06:09;12.05;48.82
70321;DHT22;61127;55.826;37.046;2023-04-25T04:08:39;12.06;47.69
70321;DHT22;61127;55.826;37.046;2023-04-25T04:11:06;12.11;49.21
70321;DHT22;61127;55.826;37.046;2023-04-25T04:13:32;12.15;50.08
70321;DHT22;61127;55.826;37.046;2023-04-25T04:15:59;12.18;47.97
70321;DHT22;61127;55.826;37.046;2023-04-25T04:18:25;12.27;46.73
70321;DHT22;61127;55.826;37.046;2023-04-25T04:20:52;12.35;44.68
70321;DHT22;61127;55.826;37.046;2023-04-25T04:23:19;12.37;47.22
70321;DHT22;61127;55.826;37.046;2023-04-25T04:25:46;12.43;47.30
70321;DHT22;61127;55.826;37.046;2023-04-25T04:28:31;12.55;46.91
70321;DHT22;61127;55.826;37.046;2023-04-25T04:31:21;12.78;47.29
70321;DHT22;61127;55.826;37.046;2023-04-25T04:33:47;12.99;47.99
70321;DHT22;61127;55.826;37.046;2023-04-25T04:36:15;13.24;47.72
70321;DHT22;61127;55.826;37.046;2023-04-25T04:38:41;13.59;47.10
70321;DHT22;61127;55.826;37.046;2023-04-25T04:41:11;13.97;46.57
70321;DHT22;61127;55.826;37.046;2023-04-25T04:43:58;14.41;45.12
70321;DHT22;61127;55.826;37.046;2023-04-25T04:46:38;14.88;44.45
70321;DHT22;61127;55.826;37.046;2023-04-25T04:49:15;15.32;43.59
70321;DHT22;61127;55.826;37.046;2023-04-25T04:52:01;15.77;42.35
70321;DHT22;61127;55.826;37.046;2023-04-25T04:54:35;16.17;42.08
70321;DHT22;61127;55.826;37.046;2023-04-25T04:57:14;16.39;40.75
70321;DHT22;61127;55.826;37.046;2023-04-25T05:00:11;16.74;39.68
70321;DHT22;61127;55.826;37.046;2023-04-25T05:03:07;0.00;39.49
70321;DHT22;61127;55.826;37.046;2023-04-25T05:06:00;0.00;0.00
70321;DHT22;61127;55.826;37.046;2023-04-25T05:08:37;0.00;0.00
70321;DHT22;61127;55.826;37.046;2023-04-25T05:11:24;0.00;0.00
70321;DHT22;61127;55.826;37.046;2023-04-25T05:14:10;0.00;0.00
70321;DHT22;61127;55.826;37.046;2023-04-25T05:16:43;0.00;0.00
70321;DHT22;61127;55.826;37.046;2023-04-25T05:19:19;0.00;0.00
70321;DHT22;61127;55.826;37.046;2023-04-25T05:21:59;0.00;0.00
70321;DHT22;61127;55.826;37.046;2023-04-25T05:24:34;0.00;0.00
70321;DHT22;61127;55.826;37.046;2023-04-25T05:27:00;0.00;0.00
70321;DHT22;61127;55.826;37.046;2023-04-25T05:29:55;0.00;0.00
70321;DHT22;61127;55.826;37.046;2023-04-25T05:32:26;0.00;0.00
70321;DHT22;61127;55.826;37.046;2023-04-25T05:34:52;0.00;0.00
70321;DHT22;61127;55.826;37.046;2023-04-25T05:37:29;0.00;0.00
70321;DHT22;61127;55.826;37.046;2023-04-25T05:40:10;0.00;0.00
70321;DHT22;61127;55.826;37.046;2023-04-25T05:43:09;0.00;0.00
70321;DHT22;61127;55.826;37.046;2023-04-25T05:45:55;0.00;0.00
70321;DHT22;61127;55.826;37.046;2023-04-25T05:48:40;0.00;0.00
70321;DHT22;61127;55.826;37.046;2023-04-25T05:51:36;0.00;0.00
70321;DHT22;61127;55.826;37.046;2023-04-25T05:54:25;0.00;0.00
70321;DHT22;61127;55.826;37.046;2023-04-25T05:56:52;0.00;0.00
70321;DHT22;61127;55.826;37.046;2023-04-25T05:59:18;0.00;0.00
70321;DHT22;61127;55.826;37.046;2023-04-25T06:01:45;0.00;0.00
70321;DHT22;61127;55.826;37.046;2023-04-25T06:04:12;0.00;0.00
70321;DHT22;61127;55.826;37.046;2023-04-25T06:06:38;0.00;0.00
70321;DHT22;61127;55.826;37.046;2023-04-25T06:09:04;0.00;0.00
70321;DHT22;61127;55.826;37.046;2023-04-25T06:11:31;0.00;0.00
70321;DHT22;61127;55.826;37.046;2023-04-25T06:13:57;0.00;0.00
70321;DHT22;61127;55.826;37.046;2023-04-25T06:16:24;0.00;0.00
70321;DHT22;61127;55.826;37.046;2023-04-25T06:18:51;0.00;0.00
70321;DHT22;61127;55.826;37.046;2023-04-25T06:21:17;0.00;0.00
70321;DHT22;61127;55.826;37.046;2023-04-25T06:23:43;0.00;0.00
70321;DHT22;61127;55.826;37.046;2023-04-25T06:26:12;0.00;0.00
70321;DHT22;61127;55.826;37.046;2023-04-25T06:28:41;0.00;0.00
70321;DHT22;61127;55.826;37.046;2023-04-25T06:31:08;0.00;0.00
70321;DHT22;61127;55.826;37.046;2023-04-25T06:33:34;0.00;0.00
70321;DHT22;61127;55.826;37.046;2023-04-25T06:36:01;0.00;0.00
70321;DHT22;61127;55.826;37.046;2023-04-25T06:38:28;0.00;0.00
70321;DHT22;61127;55.826;37.046;2023-04-25T06:40:56;0.00;0.00
70321;DHT22;61127;55.826;37.046;2023-04-25T06:43:22;25.02;24.96
70321;DHT22;61127;55.826;37.046;2023-04-25T06:46:07;25.23;23.78
70321;DHT22;61127;55.826;37.046;2023-04-25T06:48:40;25.42;21.32
70321;DHT22;61127;55.826;37.046;2023-04-25T06:51:06;0.00;0.00
70321;DHT22;61127;55.826;37.046;2023-04-25T06:53:33;0.00;0.00
70321;DHT22;61127;55.826;37.046;2023-04-25T06:56:02;25.84;21.59
70321;DHT22;61127;55.826;37.046;2023-04-25T06:58:45;0.00;0.00
70321;DHT22;61127;55.826;37.046;2023-04-25T07:01:16;0.00;0.00
70321;DHT22;61127;55.826;37.046;2023-04-25T07:03:42;0.00;0.00
70321;DHT22;61127;55.826;37.046;2023-04-25T07:06:14;0.00;0.00
70321;DHT22;61127;55.826;37.046;2023-04-25T07:08:40;0.00;0.00
70321;DHT22;61127;55.826;37.046;2023-04-25T07:11:06;0.00;0.00
70321;DHT22;61127;55.826;37.046;2023-04-25T07:13:32;0.00;0.00
70321;DHT22;61127;55.826;37.046;2023-04-25T07:15:59;0.00;0.00
70321;DHT22;61127;55.826;37.046;2023-04-25T07:18:27;0.00;0.00
70321;DHT22;61127;55.826;37.046;2023-04-25T07:20:53;27.01;18.77
70321;DHT22;61127;55.826;37.046;2023-04-25T07:23:19;0.00;0.00
70321;DHT22;61127;55.826;37.046;2023-04-25T07:25:46;0.00;0.00
70321;DHT22;61127;55.826;37.046;2023-04-25T07:28:15;27.52;16.42
70321;DHT22;61127;55.826;37.046;2023-04-25T07:30:41;27.70;19.10
70321;DHT22;61127;55.826;37.046;2023-04-25T07:33:07;0.00;0.00
70321;DHT22;61127;55.826;37.046;2023-04-25T07:35:33;27.09;18.25
70321;DHT22;61127;55.826;37.046;2023-04-25T07:37:59;27.41;18.36
70321;DHT22;61127;55.826;37.046;2023-04-25T07:40:25;27.12;17.56
70321;DHT22;61127;55.826;37.046;2023-04-25T07:42:56;26.47;18.27
70321;DHT22;61127;55.826;37.046;2023-04-25T07:45:29;26.86;16.59
70321;DHT22;61127;55.826;37.046;2023-04-25T07:47:55;27.41;17.74
70321;DHT22;61127;55.826;37.046;2023-04-25T07:50:21;27.81;15.96
70321;DHT22;61127;55.826;37.046;2023-04-25T07:52:47;0.00;0.00
70321;DHT22;61127;55.826;37.046;2023-04-25T07:55:22;0.00;0.00
70321;DHT22;61127;55.826;37.046;2023-04-25T07:58:07;28.50;14.71
70321;DHT22;61127;55.826;37.046;2023-04-25T08:00:36;28.69;14.13
70321;DHT22;61127;55.826;37.046;2023-04-25T08:03:28;27.52;16.04
70321;DHT22;61127;55.826;37.046;2023-04-25T08:05:56;27.65;16.12
70321;DHT22;61127;55.826;37.046;2023-04-25T08:08:25;28.13;14.94
70321;DHT22;61127;55.826;37.046;2023-04-25T08:10:51;29.18;15.39
70321;DHT22;61127;55.826;37.046;2023-04-25T08:13:17;29.83;14.84
70321;DHT22;61127;55.826;37.046;2023-04-25T08:15:44;0.00;0.00
70321;DHT22;61127;55.826;37.046;2023-04-25T08:18:10;0.00;0.00
70321;DHT22;61127;55.826;37.046;2023-04-25T08:20:36;0.00;0.00
70321;DHT22;61127;55.826;37.046;2023-04-25T08:23:05;0.00;0.00
70321;DHT22;61127;55.826;37.046;2023-04-25T08:25:47;0.00;0.00
70321;DHT22;61127;55.826;37.046;2023-04-25T08:28:16;0.00;0.00
70321;DHT22;61127;55.826;37.046;2023-04-25T08:30:43;31.76;12.23
70321;DHT22;61127;55.826;37.046;2023-04-25T08:33:12;30.68;13.12
70321;DHT22;61127;55.826;37.046;2023-04-25T08:36:01;29.19;13.41
70321;DHT22;61127;55.826;37.046;2023-04-25T08:38:28;27.99;13.81
70321;DHT22;61127;55.826;37.046;2023-04-25T08:40:54;26.70;14.56
70321;DHT22;61127;55.826;37.046;2023-04-25T08:43:23;26.26;15.42
70321;DHT22;61127;55.826;37.046;2023-04-25T08:45:49;25.72;15.86
70321;DHT22;61127;55.826;37.046;2023-04-25T08:48:27;25.15;16.67
70321;DHT22;61127;55.826;37.046;2023-04-25T08:50:56;24.62;17.07
70321;DHT22;61127;55.826;37.046;2023-04-25T08:53:26;24.19;17.73
70321;DHT22;61127;55.826;37.046;2023-04-25T08:55:55;23.73;17.83
70321;DHT22;61127;55.826;37.046;2023-04-25T08:58:21;23.35;18.29
70321;DHT22;61127;55.826;37.046;2023-04-25T09:00:51;23.05;18.85
70321;DHT22;61127;55.826;37.046;2023-04-25T09:03:20;22.86;19.63
70321;DHT22;61127;55.826;37.046;2023-04-25T09:05:47;22.65;19.99
70321;DHT22;61127;55.826;37.046;2023-04-25T09:08:15;22.42;20.28
70321;DHT22;61127;55.826;37.046;2023-04-25T09:10:42;22.27;20.70
70321;DHT22;61127;55.826;37.046;2023-04-25T09:13:12;22.04;21.49
70321;DHT22;61127;55.826;37.046;2023-04-25T09:16:01;21.88;22.36
70321;DHT22;61127;55.826;37.046;2023-04-25T09:18:53;21.83;22.02
70321;DHT22;61127;55.826;37.046;2023-04-25T09:21:22;21.78;21.73
70321;DHT22;61127;55.826;37.046;2023-04-25T09:23:49;21.75;21.91
70321;DHT22;61127;55.826;37.046;2023-04-25T09:26:19;21.83;23.01
70321;DHT22;61127;55.826;37.046;2023-04-25T09:28:46;21.89;22.41
70321;DHT22;61127;55.826;37.046;2023-04-25T09:31:23;22.06;22.73
70321;DHT22;61127;55.826;37.046;2023-04-25T09:34:01;22.37;22.27
70321;DHT22;61127;55.826;37.046;2023-04-25T09:36:30;22.78;22.18
70321;DHT22;61127;55.826;37.046;2023-04-25T09:39:16;24.50;21.64
70321;DHT22;61127;55.826;37.046;2023-04-25T09:41:48;26.49;20.29
70321;DHT22;61127;55.826;37.046;2023-04-25T09:44:23;0.00;0.00
70321;DHT22;61127;55.826;37.046;2023-04-25T09:46:50;0.00;0.00
70321;DHT22;61127;55.826;37.046;2023-04-25T09:49:21;31.55;13.20
70321;DHT22;61127;55.826;37.046;2023-04-25T09:52:14;0.00;14.96
70321;DHT22;61127;55.826;37.046;2023-04-25T09:54:59;31.95;13.55
70321;DHT22;61127;55.826;37.046;2023-04-25T09:57:31;32.23;12.25
70321;DHT22;61127;55.826;37.046;2023-04-25T10:00:00;32.34;13.33
70321;DHT22;61127;55.826;37.046;2023-04-25T10:02:33;32.75;13.79
70321;DHT22;61127;55.826;37.046;2023-04-25T10:05:06;0.00;0.00
70321;DHT22;61127;55.826;37.046;2023-04-25T10:07:42;0.00;0.00
70321;DHT22;61127;55.826;37.046;2023-04-25T10:10:13;33.72;12.51
70321;DHT22;61127;55.826;37.046;2023-04-25T10:12:39;34.11;12.77
70321;DHT22;61127;55.826;37.046;2023-04-25T10:15:06;34.53;12.10
70321;DHT22;61127;55.826;37.046;2023-04-25T10:17:35;33.20;12.14
70321;DHT22;61127;55.826;37.046;2023-04-25T10:20:06;31.51;12.14
70321;DHT22;61127;55.826;37.046;2023-04-25T10:22:39;29.63;12.76
70321;DHT22;61127;55.826;37.046;2023-04-25T10:25:25;28.60;13.94
70321;DHT22;61127;55.826;37.046;2023-04-25T10:27:53;28.12;14.26
70321;DHT22;61127;55.826;37.046;2023-04-25T10:30:19;27.38;14.83
70321;DHT22;61127;55.826;37.046;2023-04-25T10:32:45;27.02;15.27
70321;DHT22;61127;55.826;37.046;2023-04-25T10:35:17;27.88;16.16
70321;DHT22;61127;55.826;37.046;2023-04-25T10:40:29;31.93;11.15
70321;DHT22;61127;55.826;37.046;2023-04-25T10:42:55;32.97;12.77
70321;DHT22;61127;55.826;37.046;2023-04-25T10:45:22;33.30;10.91
70321;DHT22;61127;55.826;37.046;2023-04-25T10:47:48;33.94;10.97
70321;DHT22;61127;55.826;37.046;2023-04-25T10:50:16;34.47;9.99
70321;DHT22;61127;55.826;37.046;2023-04-25T10:52:43;0.00;0.00
70321;DHT22;61127;55.826;37.046;2023-04-25T10:55:10;0.00;0.00
70321;DHT22;61127;55.826;37.046;2023-04-25T11:00:14;34.10;8.81
70321;DHT22;61127;55.826;37.046;2023-04-25T11:02:47;33.86;8.93
70321;DHT22;61127;55.826;37.046;2023-04-25T11:05:27;34.53;10.06
70321;DHT22;61127;55.826;37.046;2023-04-25T11:07:55;34.93;9.14
70321;DHT22;61127;55.826;37.046;2023-04-25T11:10:29;34.98;8.63
70321;DHT22;61127;55.826;37.046;2023-04-25T11:12:56;35.30;9.25
70321;DHT22;61127;55.826;37.046;2023-04-25T11:15:22;35.99;8.10
70321;DHT22;61127;55.826;37.046;2023-04-25T11:17:51;36.51;9.18
70321;DHT22;61127;55.826;37.046;2023-04-25T11:20:17;36.66;7.34
70321;DHT22;61127;55.826;37.046;2023-04-25T11:22:45;36.84;8.33
70321;DHT22;61127;55.826;37.046;2023-04-25T11:25:13;36.93;7.37
70321;DHT22;61127;55.826;37.046;2023-04-25T11:27:59;37.03;6.18
70321;DHT22;61127;55.826;37.046;2023-04-25T11:30:27;36.67;7.29
70321;DHT22;61127;55.826;37.046;2023-04-25T11:32:54;35.73;7.98
70321;DHT22;61127;55.826;37.046;2023-04-25T11:35:20;34.95;7.97
70321;DHT22;61127;55.826;37.046;2023-04-25T11:37:48;34.70;7.79
70321;DHT22;61127;55.826;37.046;2023-04-25T11:40:15;34.09;8.46
70321;DHT22;61127;55.826;37.046;2023-04-25T11:42:46;32.89;9.02
70321;DHT22;61127;55.826;37.046;2023-04-25T11:45:13;32.35;9.79
70321;DHT22;61127;55.826;37.046;2023-04-25T11:47:39;31.80;10.27
70321;DHT22;61127;55.826;37.046;2023-04-25T11:50:07;31.96;10.49
70321;DHT22;61127;55.826;37.046;2023-04-25T11:52:41;31.80;10.25
70321;DHT22;61127;55.826;37.046;2023-04-25T11:55:10;30.70;10.55
70321;DHT22;61127;55.826;37.046;2023-04-25T11:57:38;29.45;11.05
70321;DHT22;61127;55.826;37.046;2023-04-25T12:00:15;29.04;12.09
70321;DHT22;61127;55.826;37.046;2023-04-25T12:02:45;30.36;11.78
70321;DHT22;61127;55.826;37.046;2023-04-25T12:05:13;31.22;10.96
70321;DHT22;61127;55.826;37.046;2023-04-25T12:07:39;31.89;10.51
70321;DHT22;61127;55.826;37.046;2023-04-25T12:10:09;31.37;10.56
70321;DHT22;61127;55.826;37.046;2023-04-25T12:12:37;31.35;10.91
70321;DHT22;61127;55.826;37.046;2023-04-25T12:17:44;32.66;9.88
70321;DHT22;61127;55.826;37.046;2023-04-25T12:20:15;32.66;9.54
70321;DHT22;61127;55.826;37.046;2023-04-25T12:22:43;32.26;10.33
70321;DHT22;61127;55.826;37.046;2023-04-25T12:25:37;31.96;9.96
70321;DHT22;61127;55.826;37.046;2023-04-25T12:28:17;31.85;10.04
70321;DHT22;61127;55.826;37.046;2023-04-25T12:30:59;32.23;9.35
70321;DHT22;61127;55.826;37.046;2023-04-25T12:33:28;32.58;9.91
70321;DHT22;61127;55.826;37.046;2023-04-25T12:35:54;32.71;9.78
70321;DHT22;61127;55.826;37.046;2023-04-25T12:40:51;33.81;8.76
70321;DHT22;61127;55.826;37.046;2023-04-25T12:43:17;34.26;9.10
70321;DHT22;61127;55.826;37.046;2023-04-25T12:45:44;34.45;8.41
70321;DHT22;61127;55.826;37.046;2023-04-25T12:48:10;35.20;8.53
70321;DHT22;61127;55.826;37.046;2023-04-25T12:50:36;35.06;7.13
70321;DHT22;61127;55.826;37.046;2023-04-25T12:53:03;34.63;9.20
70321;DHT22;61127;55.826;37.046;2023-04-25T12:55:29;35.34;7.74
70321;DHT22;61127;55.826;37.046;2023-04-25T12:57:55;35.51;8.69
70321;DHT22;61127;55.826;37.046;2023-04-25T13:00:21;35.72;8.19
70321;DHT22;61127;55.826;37.046;2023-04-25T13:02:46;36.57;8.19
70321;DHT22;61127;55.826;37.046;2023-04-25T13:05:13;36.91;7.50
70321;DHT22;61127;55.826;37.046;2023-04-25T13:07:39;37.55;7.17
70321;DHT22;61127;55.826;37.046;2023-04-25T13:10:05;37.49;7.40
70321;DHT22;61127;55.826;37.046;2023-04-25T13:12:32;37.36;7.79
70321;DHT22;61127;55.826;37.046;2023-04-25T13:14:57;37.16;7.54
70321;DHT22;61127;55.826;37.046;2023-04-25T13:17:23;35.14;7.30
70321;DHT22;61127;55.826;37.046;2023-04-25T13:19:50;33.00;8.72
70321;DHT22;61127;55.826;37.046;2023-04-25T13:22:16;31.49;9.60
70321;DHT22;61127;55.826;37.046;2023-04-25T13:24:46;32.23;10.94
70321;DHT22;61127;55.826;37.046;2023-04-25T13:27:13;33.75;10.17
70321;DHT22;61127;55.826;37.046;2023-04-25T13:29:39;33.83;8.96
70321;DHT22;61127;55.826;37.046;2023-04-25T13:32:08;31.48;9.70
70321;DHT22;61127;55.826;37.046;2023-04-25T13:34:34;29.57;10.96
70321;DHT22;61127;55.826;37.046;2023-04-25T13:37:01;28.28;12.63
70321;DHT22;61127;55.826;37.046;2023-04-25T13:39:27;27.12;13.07
70321;DHT22;61127;55.826;37.046;2023-04-25T13:41:53;26.45;14.58
70321;DHT22;61127;55.826;37.046;2023-04-25T13:44:19;27.50;14.70
70321;DHT22;61127;55.826;37.046;2023-04-25T13:46:45;28.29;13.38
70321;DHT22;61127;55.826;37.046;2023-04-25T13:49:12;28.72;12.96
70321;DHT22;61127;55.826;37.046;2023-04-25T13:51:38;28.92;13.09
70321;DHT22;61127;55.826;37.046;2023-04-25T13:54:03;28.69;13.29
70321;DHT22;61127;55.826;37.046;2023-04-25T13:56:29;28.26;14.01
70321;DHT22;61127;55.826;37.046;2023-04-25T13:58:55;28.10;14.08
70321;DHT22;61127;55.826;37.046;2023-04-25T14:01:22;27.78;14.57
70321;DHT22;61127;55.826;37.046;2023-04-25T14:03:48;27.45;14.59
70321;DHT22;61127;55.826;37.046;2023-04-25T14:06:14;27.21;14.84
70321;DHT22;61127;55.826;37.046;2023-04-25T14:08:46;27.00;15.27
70321;DHT22;61127;55.826;37.046;2023-04-25T14:11:12;27.01;15.35
70321;DHT22;61127;55.826;37.046;2023-04-25T14:13:38;27.08;15.45
70321;DHT22;61127;55.826;37.046;2023-04-25T14:16:04;27.06;15.55
70321;DHT22;61127;55.826;37.046;2023-04-25T14:18:31;26.73;15.64
70321;DHT22;61127;55.826;37.046;2023-04-25T14:20:57;26.28;16.54
70321;DHT22;61127;55.826;37.046;2023-04-25T14:23:23;25.77;17.39
70321;DHT22;61127;55.826;37.046;2023-04-25T14:25:49;25.27;16.77
70321;DHT22;61127;55.826;37.046;2023-04-25T14:28:15;24.72;18.76
70321;DHT22;61127;55.826;37.046;2023-04-25T14:30:41;24.36;19.03
70321;DHT22;61127;55.826;37.046;2023-04-25T14:33:07;24.05;19.61
70321;DHT22;61127;55.826;37.046;2023-04-25T14:35:32;23.71;19.54
70321;DHT22;61127;55.826;37.046;2023-04-25T14:37:58;23.32;19.51
70321;DHT22;61127;55.826;37.046;2023-04-25T14:40:25;22.91;19.71
70321;DHT22;61127;55.826;37.046;2023-04-25T14:42:51;22.55;20.31
70321;DHT22;61127;55.826;37.046;2023-04-25T14:45:17;22.26;19.92
70321;DHT22;61127;55.826;37.046;2023-04-25T14:47:43;22.04;22.11
70321;DHT22;61127;55.826;37.046;2023-04-25T14:50:09;21.87;22.28
70321;DHT22;61127;55.826;37.046;2023-04-25T14:52:35;21.63;22.36
70321;DHT22;61127;55.826;37.046;2023-04-25T14:55:02;21.50;20.79
70321;DHT22;61127;55.826;37.046;2023-04-25T14:57:34;21.48;22.53
70321;DHT22;61127;55.826;37.046;2023-04-25T15:00:00;21.39;20.71
70321;DHT22;61127;55.826;37.046;2023-04-25T15:02:31;21.24;21.37
70321;DHT22;61127;55.826;37.046;2023-04-25T15:04:57;21.20;22.66
70321;DHT22;61127;55.826;37.046;2023-04-25T15:07:23;21.16;22.07
70321;DHT22;61127;55.826;37.046;2023-04-25T15:09:49;21.15;21.46
70321;DHT22;61127;55.826;37.046;2023-04-25T15:12:15;21.13;22.47
70321;DHT22;61127;55.826;37.046;2023-04-25T15:14:41;21.15;21.15
70321;DHT22;61127;55.826;37.046;2023-04-25T15:17:07;21.09;21.72
70321;DHT22;61127;55.826;37.046;2023-04-25T15:19:32;21.03;22.36
70321;DHT22;61127;55.826;37.046;2023-04-25T15:21:58;20.95;24.07
70321;DHT22;61127;55.826;37.046;2023-04-25T15:24:28;20.90;23.29
70321;DHT22;61127;55.826;37.046;2023-04-25T15:26:54;20.87;25.63
70321;DHT22;61127;55.826;37.046;2023-04-25T15:29:20;20.84;25.27
70321;DHT22;61127;55.826;37.046;2023-04-25T15:31:47;20.77;24.05
70321;DHT22;61127;55.826;37.046;2023-04-25T15:34:12;20.72;25.81
70321;DHT22;61127;55.826;37.046;2023-04-25T15:36:39;20.66;23.09
70321;DHT22;61127;55.826;37.046;2023-04-25T15:39:04;20.61;24.05
70321;DHT22;61127;55.826;37.046;2023-04-25T15:41:30;20.57;22.66
70321;DHT22;61127;55.826;37.046;2023-04-25T15:43:58;20.45;24.36
70321;DHT22;61127;55.826;37.046;2023-04-25T15:46:25;20.33;23.75
70321;DHT22;61127;55.826;37.046;2023-04-25T15:48:51;20.21;24.85